Statewide Weather Sensors

Route Weather Station Name Milepost Date / Time Surface Status Surface Temp Precip Intensity Wind Avg Wind Gust Dir Dewpoint Humidity Air Temp Visibility
I 25 Wyo Hill 3.52 Oct 22, 2021 02:46 am     None None 11 mph 14 mph W 24.8°F 47% 44.6°F > 1/2 mi
I 25 Whitaker 28.1 Oct 22, 2021 02:46 am Dry 39.2°F None None 20 mph 23 mph W 26.6°F 50% 44.6°F > 1/2 mi
I 25 Bear Creek 46.77 Oct 22, 2021 02:46 am Dry 44.4°F None None 16 mph 19 mph NW 24.8°F 38% 48.2°F > 1/2 mi
I 25 Bordeaux 70.8 Oct 22, 2021 02:46 am Dry 46.4°F None None 16 mph 22 mph SW 28.4°F 42% 51.8°F > 1/2 mi
I 25 Coleman 98.7 Oct 22, 2021 02:46 am Dry 42.4°F None None 1 mph 4 mph N 32.0°F 45% 53.6°F > 1/2 mi
I 25 Platte/Converse County Line 119.9 Oct 22, 2021 02:46 am Dry 35.1°F None None 3 mph 5 mph SW 32.0°F 94% 33.8°F < 1/4 mi
I 25 Deer Creek 164.2 Oct 22, 2021 02:46 am Dry 42.1°F None None 2 mph 3 mph SW 32.0°F 71% 41.0°F > 1/2 mi
I 25 Hat Six 181.67 Oct 22, 2021 02:46 am N/A   None None 1 mph 3 mph NE 33.8°F 68% 42.8°F > 1/2 mi
I 25 F Street Hill 189.51 Oct 22, 2021 02:46 am Dry 45.5°F None None 11 mph 14 mph W 32.0°F 50% 50.0°F > 1/2 mi
I 25 Twenty Mile Hill 207.2 Oct 22, 2021 02:46 am     None None 18 mph 25 mph W 33.8°F 63% 44.6°F > 1/2 mi
I 25 Smokey Gap 228.58 Oct 22, 2021 02:46 am Dry 38.7°F None None 9 mph 11 mph SE 35.6°F 72% 42.8°F > 1/2 mi
I 25 Tisdale 238.87 Oct 22, 2021 02:47 am Dry 39.2°F None None 3 mph 7 mph S 35.6°F 73% 42.8°F > 1/2 mi
I 25 I-25 Divide 267.3 Aug 30, 2021 08:44 am                      
I 80 Evanston POE .06 Oct 22, 2021 02:46 am Dry 30.0°F None   1 mph 4 mph NE 24.8°F 84% 28.4°F > 1/2 mi
I 80 Evanston 4.2 Oct 22, 2021 02:46 am Dry 62.8°F None None 1 mph 2 mph W 26.6°F 81% 32.0°F > 1/2 mi
I 80 Bear River Drive 6.94 Oct 22, 2021 02:46 am Dry 30.4°F None   1 mph 4 mph SE 24.8°F 88% 26.6°F > 1/2 mi
I 80 Painter 10.16 Oct 22, 2021 02:46 am Dry 37.4°F None None 6 mph 7 mph E 26.6°F 67% 35.6°F > 1/2 mi
I 80 First Divide 13.86 Oct 22, 2021 02:46 am Dry 39.9°F None None 6 mph 7 mph W 23.0°F 54% 39.2°F > 1/2 mi
I 80 US 189 Interchange 17.66 Oct 22, 2021 02:46 am Dry 40.1°F None None 2 mph 4 mph SW 26.6°F 67% 35.6°F > 1/2 mi
I 80 Coal Road 20.95 Oct 22, 2021 02:46 am Dry 42.8°F None None 4 mph 7 mph W 24.8°F 44% 44.6°F > 1/2 mi
I 80 Leroy 23.35 Oct 22, 2021 02:46 am Dry 38.3°F None None 0 mph 2 mph E 26.6°F 78% 32.0°F > 1/2 mi
I 80 French 27.6 Oct 22, 2021 02:46 am Dry 41.9°F None None 6 mph 7 mph SW 21.2°F 42% 42.8°F > 1/2 mi
I 80 Church Butte 52.65 Oct 22, 2021 02:46 am Dry 39.7°F None None 3 mph 4 mph SW 30.2°F 71% 37.4°F > 1/2 mi
I 80 Peru Hill 82.31 Oct 22, 2021 02:46 am Dry 39.6°F None None 6 mph 6 mph NE 30.2°F 81% 33.8°F > 1/2 mi
I 80 Green River Tunnel 90.5 Oct 22, 2021 02:46 am Dry 42.6°F None None 2 mph 2 mph N 30.2°F 82% 35.6°F > 1/2 mi
I 80 Rock Springs West 97.9 Oct 22, 2021 02:46 am N/A   None None 1 mph 2 mph W 28.4°F 80% 33.8°F > 1/2 mi
I 80 Baxter Road 111.5 Oct 22, 2021 02:46 am     None None 4 mph 1 mph NE 28.4°F 87% 32.0°F > 1/2 mi
I 80 Mile Marker 124.5 124.5 Oct 22, 2021 02:46 am Dry 34.9°F None None 2 mph 5 mph NE 24.8°F 86% 30.2°F > 1/2 mi
I 80 Point of Rocks 129.8 Oct 22, 2021 02:46 am Dry 33.1°F None None 1 mph 3 mph NE 26.6°F 100% 26.6°F > 1/2 mi
I 80 Bitter Creek 141.83 Oct 22, 2021 02:46 am Dry 42.3°F None None 8 mph 10 mph SW 26.6°F 58% 39.2°F > 1/2 mi
I 80 Tipton 156.72 Oct 22, 2021 02:46 am Dry 40.3°F None None 5 mph 7 mph SW 28.4°F 63% 39.2°F > 1/2 mi
I 80 Continental Divide 184.3 Oct 22, 2021 02:46 am Dry 37.9°F None None 7 mph 9 mph SW 28.4°F 67% 37.4°F > 1/2 mi
I 80 Sinclair 221.7 Oct 22, 2021 02:46 am Dry 40.3°F None None 6 mph 14 mph W       > 1/2 mi
I 80 Walcott Junction 234.66 Oct 22, 2021 02:46 am Dry 38.8°F None None 16 mph 20 mph S 28.4°F 59% 42.8°F > 1/2 mi
I 80 Dana Ridge 244.8 Oct 22, 2021 02:46 am Dry 38.3°F None None 12 mph 14 mph SW 24.8°F 55% 39.2°F > 1/2 mi
I 80 Mile Marker 249.1 249.1 Oct 22, 2021 02:46 am N/A   None None 14 mph 17 mph NW 24.8°F 56% 39.2°F > 1/2 mi
I 80 Halleck Ridge 252.16 Oct 22, 2021 02:46 am Dry 39.6°F None None 23 mph 27 mph SW 26.6°F 47% 44.6°F > 1/2 mi
I 80 Elk Mountain 256.17 Oct 22, 2021 02:46 am Trace Moisture 40.5°F None None 14 mph 21 mph S 24.8°F 47% 44.6°F > 1/2 mi
I 80 County Road 402 262 Oct 22, 2021 02:46 am Dry 39.2°F None None 14 mph 20 mph SE 23.0°F 47% 41.0°F > 1/2 mi
I 80 Wagonhound 266.58 Oct 22, 2021 02:46 am Dry 38.8°F None None 17 mph 22 mph SW 23.0°F 43% 42.8°F > 1/2 mi
I 80 Foote Creek 269.5 Oct 22, 2021 02:46 am Dry 38.7°F None None 19 mph 24 mph SW 21.2°F 38% 44.6°F > 1/2 mi
I 80 Arlington 271.8 Oct 22, 2021 02:46 am Dry 39.9°F None None 24 mph 30 mph W 19.4°F 35% 44.6°F > 1/2 mi
I 80 Arlington East 273.85 Oct 22, 2021 02:46 am Dry 40.8°F None None 12 mph 18 mph S 19.4°F 36% 44.6°F > 1/2 mi
I 80 Cooper Cove 279.36 Oct 22, 2021 02:46 am Dry 37.4°F None None 12 mph 21 mph S 21.2°F 36% 46.4°F > 1/2 mi
I 80 Strouss Hill 283.75 Oct 22, 2021 02:46 am N/A   None None 9 mph 15 mph NW 17.6°F 35% 44.6°F > 1/2 mi
I 80 Quealy Dome 289.5 Oct 22, 2021 02:46 am N/A   None None 11 mph 14 mph W 19.4°F 34% 46.4°F > 1/2 mi
I 80 Herrick Lane 297.66 Oct 22, 2021 02:46 am Dry 41.4°F None None 3 mph 7 mph W 21.2°F 36% 46.4°F > 1/2 mi
I 80 Summit East 325.8 Oct 22, 2021 02:46 am Dry 34.7°F None None 13 mph 19 mph S 24.8°F 55% 39.2°F > 1/2 mi
I 80 Vedauwoo 329.4 Oct 22, 2021 02:46 am N/A 34.9°F None None 7 mph 10 mph W 24.8°F 60% 37.4°F > 1/2 mi
I 80 Lone Tree 333.32 Oct 22, 2021 02:46 am Dry 34.9°F None None 11 mph 13 mph NW 24.8°F 61% 37.4°F > 1/2 mi
I 80 Buford East 336.1 Oct 22, 2021 02:46 am Dry 38.7°F None None 15 mph 17 mph SW 24.8°F 52% 41.0°F > 1/2 mi
I 80 Remount Road 340.5 Oct 22, 2021 02:46 am Wet 40.1°F None None 9 mph 11 mph NW 24.8°F 50% 42.8°F > 1/2 mi
I 80 Otto 347.69 Oct 22, 2021 02:46 am Dry 43.0°F None None 19 mph 22 mph   24.8°F 44% 44.6°F > 1/2 mi
I 80 MP 353 353 Oct 22, 2021 02:46 am Dry 42.1°F None None 8 mph 11 mph SE 24.8°F 47% 44.6°F > 1/2 mi
I 80 Cheyenne East 373 Oct 22, 2021 02:46 am Trace Moisture 52.2°F None None 10 mph 12 mph SW 24.8°F 49% 42.8°F > 1/2 mi
I 90 Montana State Line .1 Oct 22, 2021 02:46 am Dry 40.5°F None None 5 mph 6 mph NW 33.8°F 67% 42.8°F > 1/2 mi
I 90 Pompey Creek 35.3 Oct 22, 2021 02:46 am Dry 44.2°F None None 9 mph 11 mph W 28.4°F 45% 48.2°F > 1/2 mi
I 90 Sheridan/Johnson County Line 41.33 Oct 22, 2021 02:46 am Dry 43.3°F None None 11 mph 12 mph NW 32.0°F 40% 55.4°F > 1/2 mi
I 90 Piney Creek Interchange 44.7 Oct 22, 2021 02:46 am Dry 41.5°F None None 8 mph 12 mph NW 30.2°F 59% 42.8°F > 1/2 mi
I 90 Kearny Divide 45.33 Oct 22, 2021 02:46 am N/A   None   11 mph 14 mph SW 39.2°F 32% 42.8°F > 1/2 mi
I 90 Indian Creek Road 83.3 Oct 22, 2021 02:46 am Dry 41.4°F None None 4 mph 6 mph W 35.6°F 61% 48.2°F > 1/2 mi
I 90 Dead Horse 91.5 Oct 22, 2021 02:46 am Dry 41.7°F None None 2 mph 4 mph E 37.4°F 99% 37.4°F > 1/2 mi
I 90 Mile Marker 108 108 Oct 22, 2021 02:46 am Dry 39.2°F None None 11 mph 12 mph SW 35.6°F 65% 46.4°F > 1/2 mi
I 90 Inyan Kara 170.5 Oct 22, 2021 02:46 am Trace Moisture 37.8°F None   7 mph 8 mph E 37.4°F 97% 37.4°F  
I 90 Beulah 205.9 Oct 22, 2021 02:46 am Dry 44.2°F None None 8 mph 12 mph W 37.4°F 59% 50.0°F > 1/2 mi
US 14 Ucross 27.83 Oct 22, 2021 02:46 am Dry 37.4°F None None 2 mph 3 mph SW 32.0°F 94% 33.8°F > 1/2 mi
US 14 Granite Pass 38.95 Oct 22, 2021 02:46 am N/A   None None 8 mph 11 mph NE 30.2°F 80% 35.6°F > 1/2 mi
US 16 Big Horn County Line 44.01 Oct 22, 2021 02:46 am Dry 32.0°F None None 4 mph 5 mph N 24.8°F 91% 28.4°F > 1/2 mi
US 191 Farson 40.45 Oct 22, 2021 02:46 am Dry 38.5°F None None 2 mph 4 mph NE 26.6°F 88% 30.2°F > 1/2 mi
US 191 Warren Bridge 119.9 Oct 22, 2021 02:46 am Dry 34.3°F None None 2 mph 4 mph W 23.0°F 87% 26.6°F > 1/2 mi
US 20 Natrona 30 Oct 22, 2021 02:46 am N/A   None None 11 mph 15 mph W 33.8°F 69% 42.8°F > 1/2 mi
US 20 Hiland 57.4 Oct 22, 2021 02:46 am Dry 40.6°F None None 6 mph 9 mph S 32.0°F 74% 39.2°F > 1/2 mi
US 20 Van Tassell 57.85 Oct 22, 2021 02:46 am Dry 34.9°F None None 2 mph 3 mph W 32.0°F 85% 35.6°F > 1/2 mi
US 26 Wind River Lake 26.05 Oct 22, 2021 02:46 am Wet 32.5°F None None 1 mph 2 mph N 24.8°F 84% 28.4°F > 1/2 mi
US 287 Pumpkin Vine 420.4 Oct 21, 2021 10:16 pm                      
US 30 Sage Junction 34 Oct 22, 2021 02:46 am Dry 37.9°F None None 5 mph 6 mph E 28.4°F 89% 32.0°F > 1/2 mi
US 30 Nugget Canyon 39.7 Sep 27, 2021 12:52 pm                      
US 85 Gun Barrel 46.8 Oct 22, 2021 02:46 am Dry 42.4°F None None 11 mph 13 mph NW 28.4°F 52% 44.6°F > 1/2 mi
US 85 Four Corners 247.2 Oct 22, 2021 02:46 am Dry 35.1°F None None 8 mph 10 mph NE 32.0°F 83% 35.6°F > 1/2 mi
WY 120 Meeteetse 61.5 Oct 19, 2021 02:36 pm                      
WY 210 Wildcat Trail 21.52 Oct 22, 2021 02:46 am Dry 40.1°F None None 15 mph 17 mph SW 24.8°F 43% 44.6°F > 1/2 mi
WY 210 Hynds Lodge Road 24.55 Oct 22, 2021 02:46 am N/A   None None 8 mph 12 mph W 24.8°F 47% 42.8°F > 1/2 mi
WY 22 Teton Pass 11.2 Oct 22, 2021 02:46 am Dry 35.1°F None None 3 mph 4 mph E 24.8°F 55% 39.2°F > 1/2 mi
WY 220 Pathfinder Hill 80.1 Oct 22, 2021 02:46 am Chemically Wet 34.9°F None None 9 mph 11 mph SW 32.0°F 80% 37.4°F > 1/2 mi
WY 230 Skyline 230 113.2 Oct 22, 2021 02:46 am Dry 32.2°F None None 11 mph 15 mph SE 24.8°F 63% 37.4°F > 1/2 mi
WY 258 Outer Drive 13.77 Oct 22, 2021 02:46 am Dry 45.5°F None None 12 mph 17 mph W 30.2°F 38% 55.4°F > 1/2 mi
WY 28 New South Pass 41.4 Oct 22, 2021 02:46 am Dry 33.1°F None None 9 mph 14 mph W 26.6°F 66% 37.4°F > 1/2 mi
WY 28 Lower Red Canyon 59.71 Oct 22, 2021 02:46 am Dry 37.8°F None None 7 mph 30 mph S 28.4°F 47% 48.2°F > 1/2 mi
WY 296 Chief Joseph 32.96 Oct 22, 2021 02:46 am Chemically Wet 32.0°F None None 15 mph 19 mph NW 28.4°F 66% 39.2°F > 1/2 mi
WY 372 Shute Creek 34 Oct 22, 2021 02:46 am N/A   None None 1 mph 2 mph W 28.4°F 79% 33.8°F > 1/2 mi
WY 387 Pine Tree Junction 131.79 Oct 22, 2021 02:46 am Dry   None None 7 mph 8 mph SE 33.8°F 81% 39.2°F > 1/2 mi
WY 487 Shirley Rim 37 Oct 22, 2021 02:46 am Trace Moisture 36.3°F None None 2 mph 7 mph NE 28.4°F 69% 37.4°F > 1/2 mi
WY 59 Belle Fourche 87 Oct 22, 2021 02:46 am Dry 38.8°F None   9 mph 10 mph W 35.6°F 91% 37.4°F  
WY 789 Beaver Rim 48.1 Oct 22, 2021 02:46 am     None None 16 mph 23 mph SW 24.8°F 45% 44.6°F > 1/2 mi

Contact Us
Copyright 2021 Disclaimer Privacy Policy Media